createdAt,value
2017-10-06T00:02:10.918Z,0.30
2017-10-06T00:04:37.630Z,0.30
2017-10-06T00:07:04.358Z,0.30
2017-10-06T00:09:31.069Z,0.30
2017-10-06T00:11:57.792Z,0.40
2017-10-06T00:14:24.528Z,0.30
2017-10-06T00:16:51.238Z,0.30
2017-10-06T00:19:17.969Z,0.50
2017-10-06T00:21:44.725Z,0.30
2017-10-06T00:24:11.452Z,0.40
2017-10-06T00:26:38.177Z,0.30
2017-10-06T00:29:04.979Z,0.40
2017-10-06T00:31:31.689Z,0.30
2017-10-06T00:33:58.392Z,0.30
2017-10-06T00:36:25.138Z,0.40
2017-10-06T00:38:51.831Z,0.30
2017-10-06T00:41:18.543Z,0.40
2017-10-06T00:43:45.307Z,0.30
2017-10-06T00:46:12.003Z,0.30
2017-10-06T00:48:38.711Z,0.30
2017-10-06T00:51:05.479Z,0.50
2017-10-06T00:53:32.270Z,0.40
2017-10-06T00:55:59.010Z,0.30
2017-10-06T00:58:25.781Z,0.30
2017-10-06T01:00:52.516Z,0.40
2017-10-06T01:03:19.267Z,0.40
2017-10-06T01:05:46.002Z,0.40
2017-10-06T01:08:12.738Z,0.30
2017-10-06T01:10:39.459Z,0.30
2017-10-06T01:13:06.236Z,0.40
2017-10-06T01:15:32.970Z,0.37
2017-10-06T01:17:59.704Z,0.40
2017-10-06T01:20:26.456Z,0.50
2017-10-06T01:22:53.189Z,0.43
2017-10-06T01:25:19.918Z,0.80
2017-10-06T01:27:46.681Z,0.40
2017-10-06T01:30:13.418Z,0.30
2017-10-06T01:32:40.162Z,0.40
2017-10-06T01:35:06.923Z,0.50
2017-10-06T01:37:33.654Z,0.40
2017-10-06T01:40:00.399Z,0.30
2017-10-06T01:42:27.144Z,0.40
2017-10-06T01:44:53.877Z,0.30
2017-10-06T01:47:20.587Z,0.33
2017-10-06T01:49:47.344Z,0.43
2017-10-06T01:52:14.078Z,0.40
2017-10-06T01:54:40.812Z,0.30
2017-10-06T01:57:07.564Z,0.30
2017-10-06T01:59:34.321Z,0.30
2017-10-06T02:02:01.078Z,0.40
2017-10-06T02:04:27.828Z,0.40
2017-10-06T02:06:54.580Z,0.40
2017-10-06T02:09:22.314Z,0.30
2017-10-06T02:11:49.080Z,0.43
2017-10-06T02:14:15.805Z,0.40
2017-10-06T02:16:42.573Z,0.50
2017-10-06T02:19:09.329Z,0.40
2017-10-06T02:21:36.086Z,0.43
2017-10-06T02:24:02.826Z,0.40
2017-10-06T02:26:29.573Z,0.40
2017-10-06T02:28:56.311Z,0.40
2017-10-06T02:31:23.053Z,0.40
2017-10-06T02:33:49.805Z,0.40
2017-10-06T02:36:16.536Z,0.30
2017-10-06T02:38:43.270Z,0.50
2017-10-06T02:41:10.012Z,0.40
2017-10-06T02:43:36.727Z,0.40
2017-10-06T02:46:03.596Z,0.30
2017-10-06T02:48:30.329Z,0.40
2017-10-06T02:50:57.043Z,0.30
2017-10-06T02:53:23.772Z,0.50
2017-10-06T02:55:50.499Z,0.40
2017-10-06T02:58:17.219Z,0.40
2017-10-06T03:00:43.918Z,0.40
2017-10-06T03:03:10.659Z,0.50
2017-10-06T03:05:37.380Z,0.40
2017-10-06T03:08:04.097Z,0.40
2017-10-06T03:10:30.834Z,0.40
2017-10-06T03:12:57.547Z,0.50
2017-10-06T03:15:24.247Z,0.47
2017-10-06T03:17:51.002Z,0.67
2017-10-06T03:20:17.709Z,0.60
2017-10-06T03:22:44.452Z,0.50
2017-10-06T03:25:11.203Z,0.60
2017-10-06T03:27:37.909Z,0.70
2017-10-06T03:30:04.614Z,0.50
2017-10-06T03:32:31.356Z,0.50
2017-10-06T03:34:58.203Z,0.47
2017-10-06T03:37:24.906Z,0.50
2017-10-06T03:39:51.637Z,0.50
2017-10-06T03:42:18.353Z,0.50
2017-10-06T03:44:45.067Z,0.50
2017-10-06T03:47:11.803Z,0.50
2017-10-06T03:49:38.527Z,0.60
2017-10-06T03:52:05.249Z,0.60
2017-10-06T03:54:32.054Z,1.27
2017-10-06T03:56:58.833Z,1.10
2017-10-06T03:59:25.543Z,0.83
2017-10-06T04:01:52.276Z,0.87
2017-10-06T04:04:18.973Z,0.50
2017-10-06T04:06:45.709Z,0.40
2017-10-06T04:09:12.607Z,0.60
2017-10-06T04:11:39.312Z,0.60
2017-10-06T04:14:06.025Z,0.40
2017-10-06T04:16:33.106Z,0.60
2017-10-06T04:18:59.844Z,0.50
2017-10-06T04:21:26.577Z,0.50
2017-10-06T04:23:53.586Z,0.50
2017-10-06T04:26:20.327Z,0.40
2017-10-06T04:28:47.032Z,0.60
2017-10-06T04:31:13.775Z,0.60
2017-10-06T04:33:40.486Z,0.50
2017-10-06T04:36:07.231Z,0.60
2017-10-06T04:38:33.970Z,0.63
2017-10-06T04:41:00.681Z,0.50
2017-10-06T04:43:27.391Z,0.57
2017-10-06T04:45:54.129Z,0.50
2017-10-06T04:48:20.865Z,0.50
2017-10-06T04:50:47.600Z,0.73
2017-10-06T04:53:14.324Z,0.50
2017-10-06T04:55:41.040Z,0.70
2017-10-06T04:58:07.763Z,0.73
2017-10-06T05:00:34.545Z,0.83
2017-10-06T05:03:01.277Z,0.60
2017-10-06T05:05:28.000Z,0.70
2017-10-06T05:07:54.769Z,1.00
2017-10-06T05:10:21.508Z,1.20
2017-10-06T05:12:48.314Z,0.90
2017-10-06T05:15:15.094Z,1.00
2017-10-06T05:17:41.932Z,1.30
2017-10-06T05:20:08.696Z,2.80
2017-10-06T05:22:35.492Z,2.37
2017-10-06T05:25:02.222Z,2.13
2017-10-06T05:27:28.927Z,2.13
2017-10-06T05:29:55.659Z,11.27
2017-10-06T05:32:22.391Z,10.53
2017-10-06T05:34:49.102Z,8.23
2017-10-06T05:37:15.832Z,3.00
2017-10-06T05:39:42.567Z,3.43
2017-10-06T05:42:09.304Z,1.27
2017-10-06T05:44:36.099Z,1.00
2017-10-06T05:47:02.810Z,0.80
2017-10-06T05:49:29.512Z,1.07
2017-10-06T05:51:56.250Z,0.60
2017-10-06T05:54:22.957Z,0.77
2017-10-06T05:56:49.660Z,0.90
2017-10-06T05:59:16.407Z,0.60
2017-10-06T06:01:43.116Z,0.80
2017-10-06T06:04:09.827Z,0.70
2017-10-06T06:06:36.578Z,0.70
2017-10-06T06:09:03.309Z,1.87
2017-10-06T06:11:30.124Z,2.07
2017-10-06T06:13:56.952Z,1.23
2017-10-06T06:16:23.662Z,1.50
2017-10-06T06:18:50.363Z,1.70
2017-10-06T06:21:17.084Z,1.10
2017-10-06T06:23:43.847Z,1.03
2017-10-06T06:26:10.556Z,1.30
2017-10-06T06:28:37.293Z,1.10
2017-10-06T06:31:04.016Z,1.10
2017-10-06T06:33:30.725Z,0.90
2017-10-06T06:35:57.466Z,0.77
2017-10-06T06:38:24.182Z,0.73
2017-10-06T06:40:51.000Z,0.50
2017-10-06T06:43:17.812Z,0.83
2017-10-06T06:45:44.928Z,0.70
2017-10-06T06:48:11.652Z,0.83
2017-10-06T06:50:38.378Z,0.60
2017-10-06T06:53:05.145Z,0.90
2017-10-06T06:55:31.880Z,0.80
2017-10-06T06:57:58.620Z,0.90
2017-10-06T07:00:25.360Z,1.07
2017-10-06T07:02:52.093Z,1.00
2017-10-06T07:05:18.826Z,0.83
2017-10-06T07:07:45.551Z,0.90
2017-10-06T07:10:12.287Z,0.80
2017-10-06T07:12:39.020Z,1.07
2017-10-06T07:15:05.728Z,0.83
2017-10-06T07:17:32.442Z,0.90
2017-10-06T07:19:59.206Z,0.70
2017-10-06T07:22:25.908Z,0.80
2017-10-06T07:24:52.609Z,0.87
2017-10-06T07:27:19.342Z,0.80
2017-10-06T07:29:46.081Z,0.60
2017-10-06T07:32:12.784Z,0.80
2017-10-06T07:34:39.504Z,0.90
2017-10-06T07:37:06.214Z,0.90
2017-10-06T07:39:32.932Z,0.73
2017-10-06T07:41:59.655Z,0.70
2017-10-06T07:44:26.360Z,1.30
2017-10-06T07:46:53.087Z,1.33
2017-10-06T07:49:19.835Z,0.80
2017-10-06T07:51:46.541Z,0.87
2017-10-06T07:54:13.279Z,0.90
2017-10-06T07:56:40.033Z,0.67
2017-10-06T07:59:06.727Z,0.83
2017-10-06T08:01:33.431Z,0.80
2017-10-06T08:04:00.187Z,0.90
2017-10-06T08:06:26.888Z,0.60
2017-10-06T08:08:53.621Z,1.00
2017-10-06T08:11:20.360Z,0.70
2017-10-06T08:13:47.056Z,1.20
2017-10-06T08:16:13.756Z,0.90
2017-10-06T08:18:40.527Z,0.90
2017-10-06T08:21:07.237Z,1.13
2017-10-06T08:23:33.949Z,0.87
2017-10-06T08:26:00.673Z,1.17
2017-10-06T08:28:27.375Z,1.37
2017-10-06T08:30:54.124Z,0.50
2017-10-06T08:33:20.890Z,0.73
2017-10-06T08:35:47.607Z,0.50
2017-10-06T08:38:14.319Z,0.60
2017-10-06T08:40:41.070Z,0.60
2017-10-06T08:43:07.754Z,0.57
2017-10-06T08:45:34.489Z,0.97
2017-10-06T08:48:01.214Z,0.80
2017-10-06T08:50:27.915Z,0.77
2017-10-06T08:52:54.612Z,0.77
2017-10-06T08:55:21.338Z,0.83
2017-10-06T08:57:48.076Z,0.70
2017-10-06T09:00:14.824Z,0.63
2017-10-06T09:02:41.537Z,1.00
2017-10-06T09:05:08.258Z,0.77
2017-10-06T09:07:34.955Z,0.60
2017-10-06T09:10:01.681Z,0.63
2017-10-06T09:12:28.387Z,0.63
2017-10-06T09:14:55.080Z,0.60
2017-10-06T09:17:21.881Z,0.50
2017-10-06T09:19:48.592Z,0.50
2017-10-06T09:22:15.314Z,0.60
2017-10-06T09:24:42.052Z,0.40
2017-10-06T09:27:08.756Z,0.50
2017-10-06T09:29:35.482Z,0.60
2017-10-06T09:32:02.200Z,0.67
2017-10-06T09:34:28.896Z,0.43
2017-10-06T09:36:55.594Z,0.50
2017-10-06T09:39:22.316Z,0.50
2017-10-06T09:41:49.042Z,0.53
2017-10-06T09:44:15.779Z,0.60
2017-10-06T09:46:42.536Z,0.60
2017-10-06T09:49:09.240Z,0.57
2017-10-06T09:51:35.951Z,0.50
2017-10-06T09:54:02.674Z,0.67
2017-10-06T09:56:29.390Z,2.13
2017-10-06T09:58:56.117Z,0.80
2017-10-06T10:01:22.872Z,0.53
2017-10-06T10:03:49.579Z,0.60
2017-10-06T10:06:16.267Z,0.50
2017-10-06T10:08:42.994Z,0.60
2017-10-06T10:11:09.707Z,0.50
2017-10-06T10:13:36.430Z,0.40
2017-10-06T10:16:03.149Z,0.57
2017-10-06T10:18:29.855Z,0.40
2017-10-06T10:20:56.554Z,0.50
2017-10-06T10:23:23.374Z,0.47
2017-10-06T10:25:50.104Z,0.53
2017-10-06T10:28:16.812Z,0.50
2017-10-06T10:30:43.539Z,0.50
2017-10-06T10:33:10.244Z,0.50
2017-10-06T10:35:36.935Z,0.70
2017-10-06T10:38:03.660Z,0.50
2017-10-06T10:40:30.384Z,0.70
2017-10-06T10:42:57.087Z,0.90
2017-10-06T10:45:23.842Z,0.50
2017-10-06T10:47:50.586Z,1.00
2017-10-06T10:50:17.338Z,0.50
2017-10-06T10:52:44.078Z,0.50
2017-10-06T10:55:10.817Z,0.43
2017-10-06T10:57:37.540Z,0.60
2017-10-06T11:00:04.300Z,0.50
2017-10-06T11:02:31.024Z,0.50
2017-10-06T11:04:57.781Z,0.50
2017-10-06T11:07:24.527Z,1.60
2017-10-06T11:09:51.272Z,0.67
2017-10-06T11:12:18.006Z,0.70
2017-10-06T11:14:44.744Z,0.60
2017-10-06T11:17:11.475Z,0.50
2017-10-06T11:19:38.233Z,0.63
2017-10-06T11:22:05.020Z,0.63
2017-10-06T11:24:31.770Z,1.00
2017-10-06T11:26:58.512Z,1.00
2017-10-06T11:29:25.291Z,0.77
2017-10-06T11:31:52.040Z,0.60
2017-10-06T11:34:19.669Z,0.50
2017-10-06T11:36:46.492Z,0.60
2017-10-06T11:39:13.214Z,0.80
2017-10-06T11:41:39.966Z,0.70
2017-10-06T11:44:06.715Z,0.60
2017-10-06T11:46:33.477Z,0.60
2017-10-06T11:49:00.211Z,1.13
2017-10-06T11:51:26.971Z,0.50
2017-10-06T11:53:53.688Z,0.60
2017-10-06T11:56:20.444Z,0.70
2017-10-06T11:58:47.195Z,0.70
2017-10-06T12:01:13.938Z,0.57
2017-10-06T12:03:40.682Z,1.00
2017-10-06T12:06:07.441Z,0.80
2017-10-06T12:08:34.147Z,0.70
2017-10-06T12:11:00.895Z,0.50
2017-10-06T12:13:27.637Z,0.70
2017-10-06T12:15:54.391Z,0.70
2017-10-06T12:18:21.115Z,0.70
2017-10-06T12:20:47.879Z,0.60
2017-10-06T12:23:14.607Z,0.70
2017-10-06T12:25:41.367Z,0.70
2017-10-06T12:28:08.115Z,0.60
2017-10-06T12:30:34.858Z,0.63
2017-10-06T12:33:01.596Z,0.60
2017-10-06T12:35:28.351Z,0.60
2017-10-06T12:37:55.088Z,0.77
2017-10-06T12:40:21.804Z,0.60
2017-10-06T12:42:48.558Z,0.67
2017-10-06T12:45:15.292Z,0.70
2017-10-06T12:47:42.019Z,0.77
2017-10-06T12:50:08.766Z,0.50
2017-10-06T12:52:35.500Z,0.90
2017-10-06T12:55:02.210Z,0.60
2017-10-06T12:57:28.982Z,0.70
2017-10-06T12:59:55.717Z,0.80
2017-10-06T13:02:22.454Z,0.80
2017-10-06T13:04:49.203Z,0.67
2017-10-06T13:07:15.941Z,0.50
2017-10-06T13:09:42.679Z,0.90
2017-10-06T13:12:09.450Z,1.17
2017-10-06T13:14:36.170Z,0.80
2017-10-06T13:17:02.872Z,0.60
2017-10-06T13:19:29.611Z,0.70
2017-10-06T13:21:56.343Z,0.90
2017-10-06T13:24:23.034Z,0.70
2017-10-06T13:26:49.770Z,0.50
2017-10-06T13:29:16.471Z,0.63
2017-10-06T13:31:43.187Z,0.73
2017-10-06T13:34:09.940Z,0.70
2017-10-06T13:36:36.803Z,0.80
2017-10-06T13:39:03.556Z,0.90
2017-10-06T13:41:30.295Z,0.97
2017-10-06T13:43:57.005Z,0.70
2017-10-06T13:46:23.741Z,0.70
2017-10-06T13:48:50.495Z,0.60
2017-10-06T13:51:17.221Z,0.83
2017-10-06T13:53:43.943Z,0.80
2017-10-06T13:56:10.735Z,0.80
2017-10-06T13:58:37.463Z,0.60
2017-10-06T14:01:04.200Z,0.50
2017-10-06T14:03:30.956Z,0.67
2017-10-06T14:05:57.673Z,0.80
2017-10-06T14:08:24.407Z,0.60
2017-10-06T14:10:51.149Z,0.60
2017-10-06T14:13:17.891Z,0.67
2017-10-06T14:15:44.691Z,0.60
2017-10-06T14:18:11.419Z,0.60
2017-10-06T14:20:38.156Z,0.80
2017-10-06T14:23:04.872Z,0.60
2017-10-06T14:25:31.600Z,0.70
2017-10-06T14:27:58.315Z,0.80
2017-10-06T14:30:25.042Z,0.70
2017-10-06T14:32:51.799Z,0.90
2017-10-06T14:35:18.503Z,0.70
2017-10-06T14:37:45.210Z,0.80
2017-10-06T14:40:11.966Z,0.67
2017-10-06T14:42:38.667Z,0.80
2017-10-06T14:45:05.373Z,0.70
2017-10-06T14:47:32.202Z,0.77
2017-10-06T14:49:58.925Z,0.70
2017-10-06T14:52:25.655Z,0.73
2017-10-06T14:54:52.396Z,0.80
2017-10-06T14:57:19.123Z,0.80
2017-10-06T14:59:45.833Z,0.73
2017-10-06T15:02:12.581Z,0.87
2017-10-06T15:04:39.325Z,0.80
2017-10-06T15:07:06.039Z,0.80
2017-10-06T15:09:32.776Z,0.60
2017-10-06T15:11:59.489Z,1.00
2017-10-06T15:14:26.211Z,0.87
2017-10-06T15:16:53.024Z,1.00
2017-10-06T15:19:19.744Z,1.20
2017-10-06T15:21:46.461Z,1.30
2017-10-06T15:24:13.312Z,1.00
2017-10-06T15:26:40.022Z,1.30
2017-10-06T15:29:06.737Z,0.87
2017-10-06T15:31:33.517Z,1.30
2017-10-06T15:34:00.273Z,1.10
2017-10-06T15:36:26.981Z,1.00
2017-10-06T15:38:53.723Z,0.87
2017-10-06T15:41:20.509Z,1.10
2017-10-06T15:43:47.276Z,0.90
2017-10-06T15:46:14.036Z,0.80
2017-10-06T15:48:40.756Z,0.90
2017-10-06T15:51:07.462Z,1.00
2017-10-06T15:53:34.266Z,0.90
2017-10-06T15:56:00.975Z,1.40
2017-10-06T15:58:27.682Z,1.07
2017-10-06T16:00:54.428Z,0.90
2017-10-06T16:03:21.144Z,1.60
2017-10-06T16:05:47.960Z,1.27
2017-10-06T16:08:14.691Z,0.60
2017-10-06T16:10:41.415Z,1.20
2017-10-06T16:13:08.146Z,1.13
2017-10-06T16:15:34.922Z,0.93
2017-10-06T16:18:01.681Z,1.03
2017-10-06T16:20:28.629Z,1.13
2017-10-06T16:22:55.366Z,0.70
2017-10-06T16:25:22.075Z,1.10
2017-10-06T16:27:48.772Z,1.17
2017-10-06T16:30:15.569Z,1.10
2017-10-06T16:32:42.303Z,1.00
2017-10-06T16:35:09.053Z,1.43
2017-10-06T16:37:35.828Z,1.37
2017-10-06T16:40:02.640Z,1.10
2017-10-06T16:42:29.345Z,1.20
2017-10-06T16:44:56.112Z,0.87
2017-10-06T16:47:22.828Z,1.63
2017-10-06T16:49:49.551Z,1.33
2017-10-06T16:52:16.291Z,1.20
2017-10-06T16:54:42.996Z,1.10
2017-10-06T16:57:09.721Z,1.10
2017-10-06T16:59:36.475Z,1.20
2017-10-06T17:02:03.191Z,1.30
2017-10-06T17:04:29.921Z,1.33
2017-10-06T17:06:56.683Z,1.30
2017-10-06T17:09:23.393Z,1.50
2017-10-06T17:11:50.121Z,1.10
2017-10-06T17:14:16.864Z,1.27
2017-10-06T17:16:44.992Z,1.13
2017-10-06T17:19:11.748Z,1.63
2017-10-06T17:21:38.499Z,1.67
2017-10-06T17:24:05.218Z,1.23
2017-10-06T17:26:31.956Z,1.60
2017-10-06T17:28:58.724Z,6.50
2017-10-06T17:31:25.447Z,2.40
2017-10-06T17:33:52.216Z,2.03
2017-10-06T17:36:22.617Z,22.47
2017-10-06T17:38:49.339Z,44.33
2017-10-06T17:41:16.061Z,28.57
2017-10-06T17:43:46.659Z,23.30
2017-10-06T17:46:13.377Z,17.83
2017-10-06T17:48:40.181Z,10.20
2017-10-06T17:51:06.916Z,7.50
2017-10-06T17:53:33.617Z,5.57
2017-10-06T17:56:00.346Z,4.60
2017-10-06T17:58:27.099Z,3.10
2017-10-06T18:00:53.808Z,1.63
2017-10-06T18:03:20.514Z,1.50
2017-10-06T18:05:47.255Z,2.10
2017-10-06T18:08:14.019Z,2.20
2017-10-06T18:10:40.795Z,1.60
2017-10-06T18:13:07.576Z,2.10
2017-10-06T18:15:34.383Z,1.57
2017-10-06T18:18:01.114Z,1.27
2017-10-06T18:20:27.859Z,1.67
2017-10-06T18:22:54.575Z,1.47
2017-10-06T18:25:21.283Z,1.47
2017-10-06T18:27:48.137Z,1.40
2017-10-06T18:30:14.909Z,1.40
2017-10-06T18:32:41.658Z,1.13
2017-10-06T18:35:08.442Z,1.20
2017-10-06T18:37:35.165Z,1.40
2017-10-06T18:40:01.917Z,1.30
2017-10-06T18:42:28.739Z,1.10
2017-10-06T18:44:55.448Z,1.47
2017-10-06T18:47:22.151Z,1.10
2017-10-06T18:49:48.891Z,1.30
2017-10-06T18:52:15.642Z,1.37
2017-10-06T18:57:15.452Z,1.97
2017-10-06T18:59:42.248Z,0.90
2017-10-06T19:02:08.961Z,0.80
2017-10-06T19:04:35.695Z,1.10
2017-10-06T19:07:02.421Z,1.20
2017-10-06T19:09:29.179Z,0.93
2017-10-06T19:11:55.941Z,1.00
2017-10-06T19:14:22.694Z,1.20
2017-10-06T19:16:49.415Z,1.17
2017-10-06T19:19:16.259Z,1.20
2017-10-06T19:21:42.982Z,1.47
2017-10-06T19:24:09.722Z,1.40
2017-10-06T19:26:36.454Z,1.40
2017-10-06T19:29:03.165Z,1.40
2017-10-06T19:31:29.916Z,1.70
2017-10-06T19:33:56.697Z,1.30
2017-10-06T19:36:23.439Z,1.37
2017-10-06T19:38:50.208Z,1.67
2017-10-06T19:41:16.953Z,1.70
2017-10-06T19:43:43.714Z,1.43
2017-10-06T19:46:10.472Z,1.40
2017-10-06T19:48:37.317Z,1.20
2017-10-06T19:51:04.057Z,1.47
2017-10-06T19:53:30.798Z,1.30
2017-10-06T19:55:57.640Z,1.73
2017-10-06T19:58:24.461Z,3.77
2017-10-06T20:00:51.198Z,4.03
2017-10-06T20:03:17.998Z,4.43
2017-10-06T20:05:44.737Z,3.90
2017-10-06T20:08:11.490Z,3.30
2017-10-06T20:10:38.262Z,2.17
2017-10-06T20:13:04.996Z,1.30
2017-10-06T20:15:31.751Z,1.47
2017-10-06T20:17:58.516Z,1.03
2017-10-06T20:20:25.308Z,1.10
2017-10-06T20:22:52.129Z,1.50
2017-10-06T20:25:18.929Z,1.40
2017-10-06T20:27:45.731Z,1.60
2017-10-06T20:30:12.453Z,0.73
2017-10-06T20:32:39.225Z,1.00
2017-10-06T20:35:05.963Z,0.80
2017-10-06T20:37:32.704Z,0.90
2017-10-06T20:39:59.508Z,0.70
2017-10-06T20:42:26.262Z,0.70
2017-10-06T20:44:53.103Z,0.97
2017-10-06T20:47:19.886Z,0.87
2017-10-06T20:49:46.675Z,0.80
2017-10-06T20:52:13.423Z,0.60
2017-10-06T20:54:40.261Z,0.80
2017-10-06T20:57:07.043Z,0.80
2017-10-06T20:59:34.593Z,0.90
2017-10-06T21:02:01.349Z,0.90
2017-10-06T21:04:28.151Z,0.80
2017-10-06T21:06:54.864Z,0.73
2017-10-06T21:09:21.635Z,0.93
2017-10-06T21:11:48.449Z,0.60
2017-10-06T21:14:15.187Z,0.83
2017-10-06T21:16:41.950Z,1.00
2017-10-06T21:19:08.692Z,0.90
2017-10-06T21:21:35.459Z,0.80
2017-10-06T21:24:02.270Z,0.90
2017-10-06T21:26:28.999Z,0.97
2017-10-06T21:28:55.734Z,1.20
2017-10-06T21:31:22.476Z,1.30
2017-10-06T21:33:49.197Z,1.47
2017-10-06T21:36:16.012Z,1.73
2017-10-06T21:38:42.758Z,2.50
2017-10-06T21:41:09.499Z,2.37
2017-10-06T21:43:36.316Z,2.00
2017-10-06T21:46:03.156Z,1.20
2017-10-06T21:48:29.870Z,1.00
2017-10-06T21:50:57.286Z,1.20
2017-10-06T21:53:24.068Z,1.10
2017-10-06T21:55:50.784Z,1.20
2017-10-06T21:58:17.580Z,1.23
2017-10-06T22:00:44.363Z,1.17
2017-10-06T22:03:11.105Z,1.10
2017-10-06T22:05:37.902Z,1.60
2017-10-06T22:08:04.652Z,1.73
2017-10-06T22:10:31.372Z,1.97
2017-10-06T22:12:58.078Z,1.83
2017-10-06T22:15:24.827Z,2.20
2017-10-06T22:17:51.557Z,2.30
2017-10-06T22:20:18.356Z,2.20
2017-10-06T22:22:45.165Z,2.27
2017-10-06T22:25:11.893Z,1.83
2017-10-06T22:27:38.618Z,1.83
2017-10-06T22:30:05.364Z,1.80
2017-10-06T22:32:32.078Z,1.47
2017-10-06T22:34:58.858Z,1.60
2017-10-06T22:37:25.655Z,1.60
2017-10-06T22:39:52.374Z,1.63
2017-10-06T22:42:19.111Z,1.80
2017-10-06T22:44:45.842Z,1.73
2017-10-06T22:47:12.610Z,1.90
2017-10-06T22:49:39.341Z,2.00
2017-10-06T22:52:06.242Z,1.77
2017-10-06T22:54:33.040Z,2.07
2017-10-06T22:56:59.754Z,1.83
2017-10-06T22:59:26.474Z,2.00
2017-10-06T23:01:53.176Z,1.73
2017-10-06T23:04:19.951Z,1.90
2017-10-06T23:06:46.703Z,1.67
2017-10-06T23:09:13.488Z,2.20
2017-10-06T23:11:40.188Z,1.97
2017-10-06T23:14:07.008Z,1.60
2017-10-06T23:16:33.706Z,1.83
2017-10-06T23:19:00.415Z,2.47
2017-10-06T23:21:27.159Z,1.77
2017-10-06T23:23:53.930Z,2.20
2017-10-06T23:26:20.641Z,2.10
2017-10-06T23:28:47.389Z,1.80
2017-10-06T23:31:14.094Z,2.20
2017-10-06T23:33:40.877Z,2.10
2017-10-06T23:36:07.607Z,2.20
2017-10-06T23:38:34.321Z,1.50
2017-10-06T23:41:01.030Z,1.50
2017-10-06T23:43:27.742Z,1.70
2017-10-06T23:45:54.439Z,1.73
2017-10-06T23:48:21.224Z,2.07
2017-10-06T23:50:47.968Z,2.00
2017-10-06T23:53:14.662Z,1.60
2017-10-06T23:55:41.398Z,1.97
2017-10-06T23:58:08.144Z,1.23
